GMAT

Tan Tan Airport

Tan Tan, Morocco
METAR GMAT 221700Z 33014KT 8000 OVC016 18/12 Q1014 NOSIG
Observed Flight Rules
May-22 @ 17:00 UTC (45 minutes ago) Marginal Visual Flight Rules
Wind Visibility Clouds
330° at 14 knots 7,998 meters
  • Overcast at 1,600' AGL
Temperatures Readings
Current 18°C / 64°F
Dewpoint 12°C / 54°F
Humidity 68%
Altimeter 29.94" Hg
Pressure 1014 hPa
Elevation 200
METAR GMAT 221700Z 33014KT 8000 OVC016 18/12 Q1014 NOSIG
Observed Flight Rules
May-22 @ 17:00 UTC
(45 minutes ago)
MVFR
Wind Visibility
330° at 14 knots 7,998 meters
Clouds
  • Overcast at 1,600' AGL
Temperature Dewpoint
18°C / 64°F 12°C / 54°F
Humidity Altimeter Pressure
68% 29.94" Hg 1014 hPa